sensor_id;sensor_type;location;lat;lon;timestamp;pressure;altitude;pressure_sealevel;temperature;humidity
20394;BME280;10356;50.544;9.642;2022-07-29T00:02:23;98166.53;;;19.19;44.49
20394;BME280;10356;50.544;9.642;2022-07-29T00:04:49;98157.94;;;19.17;44.42
20394;BME280;10356;50.544;9.642;2022-07-29T00:07:16;98156.13;;;19.17;44.27
20394;BME280;10356;50.544;9.642;2022-07-29T00:09:42;98156.13;;;19.17;44.37
20394;BME280;10356;50.544;9.642;2022-07-29T00:12:09;98154.50;;;19.16;44.46
20394;BME280;10356;50.544;9.642;2022-07-29T00:14:35;98156.56;;;19.06;44.86
20394;BME280;10356;50.544;9.642;2022-07-29T00:17:03;98151.56;;;19.11;44.95
20394;BME280;10356;50.544;9.642;2022-07-29T00:19:29;98150.25;;;19.07;44.78
20394;BME280;10356;50.544;9.642;2022-07-29T00:21:56;98144.84;;;19.01;45.14
20394;BME280;10356;50.544;9.642;2022-07-29T00:24:22;98150.03;;;18.94;45.38
20394;BME280;10356;50.544;9.642;2022-07-29T00:26:49;98149.00;;;18.95;45.40
20394;BME280;10356;50.544;9.642;2022-07-29T00:29:15;98142.38;;;18.99;45.14
20394;BME280;10356;50.544;9.642;2022-07-29T00:31:42;98140.25;;;18.95;44.94
20394;BME280;10356;50.544;9.642;2022-07-29T00:34:10;98137.78;;;18.93;45.20
20394;BME280;10356;50.544;9.642;2022-07-29T00:36:59;98134.56;;;18.83;45.27
20394;BME280;10356;50.544;9.642;2022-07-29T00:39:25;98124.50;;;18.79;45.59
20394;BME280;10356;50.544;9.642;2022-07-29T00:41:52;98120.41;;;18.76;45.52
20394;BME280;10356;50.544;9.642;2022-07-29T00:44:18;98117.13;;;18.74;45.71
20394;BME280;10356;50.544;9.642;2022-07-29T00:46:45;98116.34;;;18.66;45.87
20394;BME280;10356;50.544;9.642;2022-07-29T00:49:13;98112.22;;;18.63;45.82
20394;BME280;10356;50.544;9.642;2022-07-29T00:51:40;98110.22;;;18.65;45.87
20394;BME280;10356;50.544;9.642;2022-07-29T00:54:07;98104.31;;;18.63;45.95
20394;BME280;10356;50.544;9.642;2022-07-29T00:56:33;98104.00;;;18.58;45.86
20394;BME280;10356;50.544;9.642;2022-07-29T00:59:00;98103.19;;;18.58;46.14
20394;BME280;10356;50.544;9.642;2022-07-29T01:01:26;98105.63;;;18.59;45.93
20394;BME280;10356;50.544;9.642;2022-07-29T01:03:54;98102.72;;;18.54;46.01
20394;BME280;10356;50.544;9.642;2022-07-29T01:06:22;98096.13;;;18.50;45.48
20394;BME280;10356;50.544;9.642;2022-07-29T01:08:50;98092.00;;;18.48;45.67
20394;BME280;10356;50.544;9.642;2022-07-29T01:11:17;98082.78;;;18.43;45.90
20394;BME280;10356;50.544;9.642;2022-07-29T01:13:45;98085.09;;;18.38;45.86
20394;BME280;10356;50.544;9.642;2022-07-29T01:16:18;98075.34;;;18.39;45.93
20394;BME280;10356;50.544;9.642;2022-07-29T01:18:49;98088.72;;;18.37;45.82
20394;BME280;10356;50.544;9.642;2022-07-29T01:21:46;98093.19;;;18.37;45.77
20394;BME280;10356;50.544;9.642;2022-07-29T01:24:30;98096.47;;;18.39;45.38
20394;BME280;10356;50.544;9.642;2022-07-29T01:27:04;98096.00;;;18.43;45.31
20394;BME280;10356;50.544;9.642;2022-07-29T01:29:41;98085.44;;;18.43;45.41
20394;BME280;10356;50.544;9.642;2022-07-29T01:32:11;98095.81;;;18.37;45.62
20394;BME280;10356;50.544;9.642;2022-07-29T01:34:50;98093.19;;;18.37;45.82
20394;BME280;10356;50.544;9.642;2022-07-29T01:37:20;98088.25;;;18.34;45.63
20394;BME280;10356;50.544;9.642;2022-07-29T01:39:49;98094.50;;;18.33;45.75
20394;BME280;10356;50.544;9.642;2022-07-29T01:42:22;98091.56;;;18.28;45.96
20394;BME280;10356;50.544;9.642;2022-07-29T01:44:56;98090.94;;;18.26;45.96
20394;BME280;10356;50.544;9.642;2022-07-29T01:47:28;98087.28;;;18.27;45.96
20394;BME280;10356;50.544;9.642;2022-07-29T01:49:58;98093.25;;;18.21;46.28
20394;BME280;10356;50.544;9.642;2022-07-29T01:52:31;98082.38;;;18.16;46.56
20394;BME280;10356;50.544;9.642;2022-07-29T01:55:04;98082.06;;;18.11;46.85
20394;BME280;10356;50.544;9.642;2022-07-29T01:57:34;98094.59;;;18.09;46.88
20394;BME280;10356;50.544;9.642;2022-07-29T02:00:04;98090.84;;;18.03;46.94
20394;BME280;10356;50.544;9.642;2022-07-29T02:02:33;98089.16;;;18.02;46.71
20394;BME280;10356;50.544;9.642;2022-07-29T02:05:02;98085.06;;;18.00;46.90
20394;BME280;10356;50.544;9.642;2022-07-29T02:07:31;98082.75;;;18.05;46.73
20394;BME280;10356;50.544;9.642;2022-07-29T02:10:00;98080.09;;;18.05;46.55
20394;BME280;10356;50.544;9.642;2022-07-29T02:12:29;98070.72;;;18.02;46.69
20394;BME280;10356;50.544;9.642;2022-07-29T02:15:00;98065.63;;;18.01;46.67
20394;BME280;10356;50.544;9.642;2022-07-29T02:17:42;98076.47;;;17.98;46.64
20394;BME280;10356;50.544;9.642;2022-07-29T02:20:11;98078.16;;;17.99;46.78
20394;BME280;10356;50.544;9.642;2022-07-29T02:22:39;98080.44;;;17.94;46.89
20394;BME280;10356;50.544;9.642;2022-07-29T02:25:07;98074.38;;;17.93;46.72
20394;BME280;10356;50.544;9.642;2022-07-29T02:27:34;98079.16;;;17.90;47.08
20394;BME280;10356;50.544;9.642;2022-07-29T02:30:02;98079.97;;;17.90;47.02
20394;BME280;10356;50.544;9.642;2022-07-29T02:32:31;98088.88;;;17.89;47.12
20394;BME280;10356;50.544;9.642;2022-07-29T02:35:01;98081.13;;;17.88;47.29
20394;BME280;10356;50.544;9.642;2022-07-29T02:37:29;98083.75;;;17.88;47.05
20394;BME280;10356;50.544;9.642;2022-07-29T02:39:57;98084.75;;;17.87;47.43
20394;BME280;10356;50.544;9.642;2022-07-29T02:42:26;98089.22;;;17.86;47.60
20394;BME280;10356;50.544;9.642;2022-07-29T02:44:53;98094.31;;;17.88;47.45
20394;BME280;10356;50.544;9.642;2022-07-29T02:47:22;98100.59;;;17.87;47.95
20394;BME280;10356;50.544;9.642;2022-07-29T02:49:55;98103.53;;;17.92;47.74
20394;BME280;10356;50.544;9.642;2022-07-29T02:52:26;98098.75;;;17.95;47.65
20394;BME280;10356;50.544;9.642;2022-07-29T02:54:57;98106.81;;;17.94;47.76
20394;BME280;10356;50.544;9.642;2022-07-29T02:57:31;98108.00;;;17.91;48.09
20394;BME280;10356;50.544;9.642;2022-07-29T03:00:03;98098.91;;;17.94;48.00
20394;BME280;10356;50.544;9.642;2022-07-29T03:02:33;98102.22;;;17.88;48.03
20394;BME280;10356;50.544;9.642;2022-07-29T03:05:03;98103.22;;;17.87;48.17
20394;BME280;10356;50.544;9.642;2022-07-29T03:07:30;98094.31;;;17.80;48.36
20394;BME280;10356;50.544;9.642;2022-07-29T03:09:58;98097.28;;;17.85;48.16
20394;BME280;10356;50.544;9.642;2022-07-29T03:12:25;98091.38;;;17.75;48.55
20394;BME280;10356;50.544;9.642;2022-07-29T03:14:52;98098.63;;;17.73;48.64
20394;BME280;10356;50.544;9.642;2022-07-29T03:17:20;98101.28;;;17.65;48.67
20394;BME280;10356;50.544;9.642;2022-07-29T03:19:48;98105.88;;;17.63;48.86
20394;BME280;10356;50.544;9.642;2022-07-29T03:22:16;98103.25;;;17.71;48.87
20394;BME280;10356;50.544;9.642;2022-07-29T03:24:42;98099.97;;;17.60;49.56
20394;BME280;10356;50.544;9.642;2022-07-29T03:27:09;98103.56;;;17.59;49.93
20394;BME280;10356;50.544;9.642;2022-07-29T03:29:36;98095.84;;;17.50;50.29
20394;BME280;10356;50.544;9.642;2022-07-29T03:32:04;98095.34;;;17.46;50.56
20394;BME280;10356;50.544;9.642;2022-07-29T03:34:31;98097.97;;;17.38;51.10
20394;BME280;10356;50.544;9.642;2022-07-29T03:36:58;98103.25;;;17.46;50.94
20394;BME280;10356;50.544;9.642;2022-07-29T03:39:29;98098.16;;;17.37;51.30
20394;BME280;10356;50.544;9.642;2022-07-29T03:41:59;98093.66;;;17.13;52.13
20394;BME280;10356;50.544;9.642;2022-07-29T03:44:27;98094.84;;;17.19;52.15
20394;BME280;10356;50.544;9.642;2022-07-29T03:46:56;98095.66;;;17.19;52.05
20394;BME280;10356;50.544;9.642;2022-07-29T03:49:25;98097.31;;;17.20;52.48
20394;BME280;10356;50.544;9.642;2022-07-29T03:51:52;98098.28;;;17.11;53.00
20394;BME280;10356;50.544;9.642;2022-07-29T03:54:19;98093.00;;;17.11;53.02
20394;BME280;10356;50.544;9.642;2022-07-29T03:56:48;98094.66;;;17.12;53.03
20394;BME280;10356;50.544;9.642;2022-07-29T03:59:17;98089.91;;;17.16;53.08
20394;BME280;10356;50.544;9.642;2022-07-29T04:01:45;98089.59;;;17.19;52.89
20394;BME280;10356;50.544;9.642;2022-07-29T04:04:12;98093.53;;;17.15;53.08
20394;BME280;10356;50.544;9.642;2022-07-29T04:06:39;98094.31;;;17.15;52.96
20394;BME280;10356;50.544;9.642;2022-07-29T04:09:06;98087.91;;;17.18;52.95
20394;BME280;10356;50.544;9.642;2022-07-29T04:11:34;98094.84;;;17.19;53.05
20394;BME280;10356;50.544;9.642;2022-07-29T04:14:02;98096.16;;;17.23;53.16
20394;BME280;10356;50.544;9.642;2022-07-29T04:16:29;98095.34;;;17.22;53.11
20394;BME280;10356;50.544;9.642;2022-07-29T04:18:56;98097.97;;;17.30;52.89
20394;BME280;10356;50.544;9.642;2022-07-29T04:21:22;98093.53;;;17.39;52.72
20394;BME280;10356;50.544;9.642;2022-07-29T04:23:49;98097.97;;;17.46;52.51
20394;BME280;10356;50.544;9.642;2022-07-29T04:26:16;98096.31;;;17.45;52.47
20394;BME280;10356;50.544;9.642;2022-07-29T04:28:43;98089.91;;;17.32;55.29
20394;BME280;10356;50.544;9.642;2022-07-29T04:31:12;98087.75;;;17.27;54.83
20394;BME280;10356;50.544;9.642;2022-07-29T04:33:39;98089.91;;;17.24;54.48
20394;BME280;10356;50.544;9.642;2022-07-29T04:36:05;98087.25;;;17.24;54.74
20394;BME280;10356;50.544;9.642;2022-07-29T04:38:32;98086.78;;;17.28;54.67
20394;BME280;10356;50.544;9.642;2022-07-29T04:40:58;98074.94;;;17.32;54.43
20394;BME280;10356;50.544;9.642;2022-07-29T04:43:25;98085.78;;;17.37;54.58
20394;BME280;10356;50.544;9.642;2022-07-29T04:45:51;98073.91;;;17.41;54.93
20394;BME280;10356;50.544;9.642;2022-07-29T04:48:19;98077.22;;;17.43;55.16
20394;BME280;10356;50.544;9.642;2022-07-29T04:50:46;98083.50;;;17.50;54.21
20394;BME280;10356;50.544;9.642;2022-07-29T04:53:12;98073.81;;;17.51;54.16
20394;BME280;10356;50.544;9.642;2022-07-29T04:55:39;98073.94;;;17.49;53.63
20394;BME280;10356;50.544;9.642;2022-07-29T04:58:06;98065.25;;;17.49;54.43
20394;BME280;10356;50.544;9.642;2022-07-29T05:00:32;98066.03;;;17.49;54.77
20394;BME280;10356;50.544;9.642;2022-07-29T05:02:59;98068.53;;;17.51;55.09
20394;BME280;10356;50.544;9.642;2022-07-29T05:05:27;98072.63;;;17.53;55.41
20394;BME280;10356;50.544;9.642;2022-07-29T05:07:54;98081.03;;;17.57;55.43
20394;BME280;10356;50.544;9.642;2022-07-29T05:10:20;98072.78;;;17.60;55.36
20394;BME280;10356;50.544;9.642;2022-07-29T05:12:47;98070.50;;;17.65;56.16
20394;BME280;10356;50.544;9.642;2022-07-29T05:15:14;98075.41;;;17.68;55.00
20394;BME280;10356;50.544;9.642;2022-07-29T05:17:41;98069.94;;;17.78;55.91
20394;BME280;10356;50.544;9.642;2022-07-29T05:20:09;98068.44;;;17.91;55.24
20394;BME280;10356;50.544;9.642;2022-07-29T05:22:37;98075.66;;;18.05;53.88
20394;BME280;10356;50.544;9.642;2022-07-29T05:25:04;98079.41;;;18.19;52.99
20394;BME280;10356;50.544;9.642;2022-07-29T05:27:31;98071.81;;;18.24;52.38
20394;BME280;10356;50.544;9.642;2022-07-29T05:29:57;98076.41;;;18.30;55.01
20394;BME280;10356;50.544;9.642;2022-07-29T05:32:24;98076.19;;;18.39;53.33
20394;BME280;10356;50.544;9.642;2022-07-29T05:34:50;98081.19;;;18.65;51.54
20394;BME280;10356;50.544;9.642;2022-07-29T05:37:17;98077.13;;;18.85;50.47
20394;BME280;10356;50.544;9.642;2022-07-29T05:39:45;98083.63;;;18.97;50.36
20394;BME280;10356;50.544;9.642;2022-07-29T05:42:12;98088.22;;;19.03;49.14
20394;BME280;10356;50.544;9.642;2022-07-29T05:44:39;98087.81;;;19.14;48.59
20394;BME280;10356;50.544;9.642;2022-07-29T05:47:06;98098.38;;;19.14;48.89
20394;BME280;10356;50.544;9.642;2022-07-29T05:49:32;98096.84;;;19.20;48.74
20394;BME280;10356;50.544;9.642;2022-07-29T05:51:59;98093.75;;;19.16;49.06
20394;BME280;10356;50.544;9.642;2022-07-29T05:54:25;98099.44;;;19.05;48.96
20394;BME280;10356;50.544;9.642;2022-07-29T05:56:53;98109.81;;;19.07;49.02
20394;BME280;10356;50.544;9.642;2022-07-29T05:59:20;98110.69;;;18.99;49.41
20394;BME280;10356;50.544;9.642;2022-07-29T06:01:46;98117.69;;;18.92;49.51
20394;BME280;10356;50.544;9.642;2022-07-29T06:04:13;98105.50;;;18.83;50.48
20394;BME280;10356;50.544;9.642;2022-07-29T06:06:39;98122.28;;;18.68;53.12
20394;BME280;10356;50.544;9.642;2022-07-29T06:09:06;98133.38;;;18.55;54.31
20394;BME280;10356;50.544;9.642;2022-07-29T06:11:33;98149.91;;;18.33;56.71
20394;BME280;10356;50.544;9.642;2022-07-29T06:14:00;98161.50;;;18.16;58.17
20394;BME280;10356;50.544;9.642;2022-07-29T06:16:28;98171.41;;;17.98;60.52
20394;BME280;10356;50.544;9.642;2022-07-29T06:18:55;98174.72;;;17.92;62.69
20394;BME280;10356;50.544;9.642;2022-07-29T06:21:21;98172.09;;;17.59;64.74
20394;BME280;10356;50.544;9.642;2022-07-29T06:23:48;98182.75;;;17.34;65.06
20394;BME280;10356;50.544;9.642;2022-07-29T06:26:14;98183.38;;;17.12;67.17
20394;BME280;10356;50.544;9.642;2022-07-29T06:28:41;98172.47;;;16.99;67.64
20394;BME280;10356;50.544;9.642;2022-07-29T06:31:09;98154.19;;;16.89;67.11
20394;BME280;10356;50.544;9.642;2022-07-29T06:33:35;98159.09;;;16.76;67.56
20394;BME280;10356;50.544;9.642;2022-07-29T06:36:03;98158.72;;;16.71;68.12
20394;BME280;10356;50.544;9.642;2022-07-29T06:38:30;98166.66;;;16.79;68.36
20394;BME280;10356;50.544;9.642;2022-07-29T06:40:58;98168.31;;;16.80;69.01
20394;BME280;10356;50.544;9.642;2022-07-29T06:43:29;98160.84;;;16.67;72.04
20394;BME280;10356;50.544;9.642;2022-07-29T06:45:58;98166.44;;;16.72;72.05
20394;BME280;10356;50.544;9.642;2022-07-29T06:48:26;98160.97;;;16.50;72.45
20394;BME280;10356;50.544;9.642;2022-07-29T06:50:53;98153.16;;;16.48;72.55
20394;BME280;10356;50.544;9.642;2022-07-29T06:53:20;98160.88;;;16.42;73.05
20394;BME280;10356;50.544;9.642;2022-07-29T06:55:46;98160.34;;;16.38;73.41
20394;BME280;10356;50.544;9.642;2022-07-29T06:58:13;98164.81;;;16.38;75.86
20394;BME280;10356;50.544;9.642;2022-07-29T07:00:41;98158.44;;;16.48;74.21
20394;BME280;10356;50.544;9.642;2022-07-29T07:03:07;98177.34;;;16.44;75.94
20394;BME280;10356;50.544;9.642;2022-07-29T07:05:35;98172.59;;;16.47;76.81
20394;BME280;10356;50.544;9.642;2022-07-29T07:08:02;98169.44;;;16.44;78.36
20394;BME280;10356;50.544;9.642;2022-07-29T07:10:29;98173.66;;;16.37;81.20
20394;BME280;10356;50.544;9.642;2022-07-29T07:12:56;98190.06;;;16.31;84.29
20394;BME280;10356;50.544;9.642;2022-07-29T07:15:22;98206.63;;;16.23;86.22
20394;BME280;10356;50.544;9.642;2022-07-29T07:17:49;98199.53;;;16.16;87.25
20394;BME280;10356;50.544;9.642;2022-07-29T07:20:16;98199.22;;;16.19;84.80
20394;BME280;10356;50.544;9.642;2022-07-29T07:22:44;98173.94;;;16.00;84.33
20394;BME280;10356;50.544;9.642;2022-07-29T07:25:11;98168.47;;;15.68;88.90
20394;BME280;10356;50.544;9.642;2022-07-29T07:27:38;98160.69;;;15.84;86.80
20394;BME280;10356;50.544;9.642;2022-07-29T07:30:06;98156.03;;;15.95;85.25
20394;BME280;10356;50.544;9.642;2022-07-29T07:32:33;98156.44;;;16.09;88.14
20394;BME280;10356;50.544;9.642;2022-07-29T07:35:00;98157.72;;;16.38;90.89
20394;BME280;10356;50.544;9.642;2022-07-29T07:37:27;98153.09;;;16.58;90.51
20394;BME280;10356;50.544;9.642;2022-07-29T07:39:55;98157.19;;;16.60;85.91
20394;BME280;10356;50.544;9.642;2022-07-29T07:42:21;98154.09;;;16.65;84.51
20394;BME280;10356;50.544;9.642;2022-07-29T07:44:48;98160.44;;;16.88;87.32
20394;BME280;10356;50.544;9.642;2022-07-29T07:47:15;98165.03;;;16.86;82.03
20394;BME280;10356;50.544;9.642;2022-07-29T07:49:45;98178.56;;;16.99;83.01
20394;BME280;10356;50.544;9.642;2022-07-29T07:52:15;98177.59;;;17.08;84.38
20394;BME280;10356;50.544;9.642;2022-07-29T07:54:42;98175.63;;;17.10;86.32
20394;BME280;10356;50.544;9.642;2022-07-29T07:57:11;98172.63;;;16.97;86.82
20394;BME280;10356;50.544;9.642;2022-07-29T07:59:37;98170.97;;;16.88;91.33
20394;BME280;10356;50.544;9.642;2022-07-29T08:02:04;98176.41;;;16.95;90.98
20394;BME280;10356;50.544;9.642;2022-07-29T08:04:32;98172.97;;;17.02;91.49
20394;BME280;10356;50.544;9.642;2022-07-29T08:06:59;98183.50;;;16.94;91.79
20394;BME280;10356;50.544;9.642;2022-07-29T08:09:26;98189.91;;;17.00;91.82
20394;BME280;10356;50.544;9.642;2022-07-29T08:11:53;98190.75;;;17.08;92.01
20394;BME280;10356;50.544;9.642;2022-07-29T08:14:21;98175.00;;;17.16;89.96
20394;BME280;10356;50.544;9.642;2022-07-29T08:16:48;98162.97;;;17.22;89.31
20394;BME280;10356;50.544;9.642;2022-07-29T08:19:14;98169.09;;;17.38;90.12
20394;BME280;10356;50.544;9.642;2022-07-29T08:21:41;98181.31;;;17.55;91.46
20394;BME280;10356;50.544;9.642;2022-07-29T08:24:07;98180.34;;;17.65;88.43
20394;BME280;10356;50.544;9.642;2022-07-29T08:26:48;98191.19;;;17.78;86.25
20394;BME280;10356;50.544;9.642;2022-07-29T08:29:15;98189.56;;;17.77;86.70
20394;BME280;10356;50.544;9.642;2022-07-29T08:31:43;98179.50;;;17.80;88.68
20394;BME280;10356;50.544;9.642;2022-07-29T08:34:10;98180.00;;;17.84;86.45
20394;BME280;10356;50.544;9.642;2022-07-29T08:36:37;98180.50;;;17.79;86.92
20394;BME280;10356;50.544;9.642;2022-07-29T08:39:04;98186.25;;;17.75;88.35
20394;BME280;10356;50.544;9.642;2022-07-29T08:41:31;98179.19;;;17.67;91.48
20394;BME280;10356;50.544;9.642;2022-07-29T08:43:58;98162.81;;;17.47;84.31
20394;BME280;10356;50.544;9.642;2022-07-29T08:46:24;98161.88;;;17.56;84.99
20394;BME280;10356;50.544;9.642;2022-07-29T08:48:52;98164.53;;;17.65;84.58
20394;BME280;10356;50.544;9.642;2022-07-29T08:51:20;98165.50;;;17.72;84.34
20394;BME280;10356;50.544;9.642;2022-07-29T08:53:48;98163.19;;;17.93;86.43
20394;BME280;10356;50.544;9.642;2022-07-29T08:56:15;98159.53;;;18.10;89.03
20394;BME280;10356;50.544;9.642;2022-07-29T08:58:43;98154.91;;;18.20;88.67
20394;BME280;10356;50.544;9.642;2022-07-29T09:01:10;98143.41;;;17.97;81.83
20394;BME280;10356;50.544;9.642;2022-07-29T09:03:39;98138.09;;;18.13;82.00
20394;BME280;10356;50.544;9.642;2022-07-29T09:06:07;98145.69;;;18.16;80.66
20394;BME280;10356;50.544;9.642;2022-07-29T09:08:34;98152.63;;;18.09;81.22
20394;BME280;10356;50.544;9.642;2022-07-29T09:11:01;98152.03;;;18.37;80.50
20394;BME280;10356;50.544;9.642;2022-07-29T09:13:28;98155.72;;;18.75;83.10
20394;BME280;10356;50.544;9.642;2022-07-29T09:15:55;98141.81;;;19.12;81.64
20394;BME280;10356;50.544;9.642;2022-07-29T09:18:37;98142.22;;;19.23;76.62
20394;BME280;10356;50.544;9.642;2022-07-29T09:21:05;98123.47;;;18.88;80.81
20394;BME280;10356;50.544;9.642;2022-07-29T09:24:02;98133.06;;;19.11;80.49
20394;BME280;10356;50.544;9.642;2022-07-29T09:26:29;98143.88;;;19.24;79.92
20394;BME280;10356;50.544;9.642;2022-07-29T09:28:57;98132.13;;;19.35;77.99
20394;BME280;10356;50.544;9.642;2022-07-29T09:31:32;98124.06;;;19.51;77.59
20394;BME280;10356;50.544;9.642;2022-07-29T09:33:59;98123.84;;;19.75;75.06
20394;BME280;10356;50.544;9.642;2022-07-29T09:36:26;98120.59;;;20.02;73.46
20394;BME280;10356;50.544;9.642;2022-07-29T09:38:57;98134.78;;;20.24;72.64
20394;BME280;10356;50.544;9.642;2022-07-29T09:41:26;98131.13;;;20.54;72.33
20394;BME280;10356;50.544;9.642;2022-07-29T09:43:54;98120.91;;;20.66;72.98
20394;BME280;10356;50.544;9.642;2022-07-29T09:46:20;98125.78;;;20.83;74.43
20394;BME280;10356;50.544;9.642;2022-07-29T09:49:05;98133.09;;;20.81;72.08
20394;BME280;10356;50.544;9.642;2022-07-29T09:51:32;98139.88;;;20.69;73.17
20394;BME280;10356;50.544;9.642;2022-07-29T09:53:59;98137.88;;;20.71;72.08
20394;BME280;10356;50.544;9.642;2022-07-29T09:56:39;98130.66;;;20.65;69.77
20394;BME280;10356;50.544;9.642;2022-07-29T09:59:06;98132.34;;;20.87;69.57
20394;BME280;10356;50.544;9.642;2022-07-29T10:01:33;98133.63;;;21.27;69.52
20394;BME280;10356;50.544;9.642;2022-07-29T10:04:01;98129.03;;;22.06;68.11
20394;BME280;10356;50.544;9.642;2022-07-29T10:06:28;98133.06;;;22.64;61.31
20394;BME280;10356;50.544;9.642;2022-07-29T10:08:54;98133.63;;;23.06;60.10
20394;BME280;10356;50.544;9.642;2022-07-29T10:11:21;98129.09;;;22.94;60.89
20394;BME280;10356;50.544;9.642;2022-07-29T10:13:49;98135.78;;;23.37;60.25
20394;BME280;10356;50.544;9.642;2022-07-29T10:16:16;98133.97;;;23.77;59.96
20394;BME280;10356;50.544;9.642;2022-07-29T10:18:43;98132.94;;;23.84;61.17
20394;BME280;10356;50.544;9.642;2022-07-29T10:21:12;98132.53;;;23.74;58.17
20394;BME280;10356;50.544;9.642;2022-07-29T10:23:39;98129.69;;;23.95;60.27
20394;BME280;10356;50.544;9.642;2022-07-29T10:26:07;98127.78;;;24.42;57.63
20394;BME280;10356;50.544;9.642;2022-07-29T10:28:34;98123.28;;;24.93;54.42
20394;BME280;10356;50.544;9.642;2022-07-29T10:31:06;98117.25;;;24.66;55.16
20394;BME280;10356;50.544;9.642;2022-07-29T10:33:52;98121.38;;;24.62;56.09
20394;BME280;10356;50.544;9.642;2022-07-29T10:36:35;98118.13;;;24.47;55.42
20394;BME280;10356;50.544;9.642;2022-07-29T10:39:14;98120.94;;;24.65;53.85
20394;BME280;10356;50.544;9.642;2022-07-29T10:41:55;98120.06;;;25.22;54.69
20394;BME280;10356;50.544;9.642;2022-07-29T10:44:23;98123.28;;;24.93;53.58
20394;BME280;10356;50.544;9.642;2022-07-29T10:46:52;98120.03;;;24.91;52.79
20394;BME280;10356;50.544;9.642;2022-07-29T10:49:20;98115.19;;;25.50;54.45
20394;BME280;10356;50.544;9.642;2022-07-29T10:51:59;98115.94;;;25.57;52.24
20394;BME280;10356;50.544;9.642;2022-07-29T10:54:40;98109.47;;;25.47;52.38
20394;BME280;10356;50.544;9.642;2022-07-29T10:57:23;98113.38;;;25.75;52.60
20394;BME280;10356;50.544;9.642;2022-07-29T11:00:30;98106.06;;;26.32;50.35
20394;BME280;10356;50.544;9.642;2022-07-29T11:02:59;98105.53;;;26.41;48.44
20394;BME280;10356;50.544;9.642;2022-07-29T11:05:26;98099.97;;;26.79;48.64
20394;BME280;10356;50.544;9.642;2022-07-29T11:08:17;98097.97;;;26.38;48.93
20394;BME280;10356;50.544;9.642;2022-07-29T11:10:46;98093.28;;;27.18;48.43
20394;BME280;10356;50.544;9.642;2022-07-29T11:13:45;98083.44;;;27.00;46.71
20394;BME280;10356;50.544;9.642;2022-07-29T11:16:12;98094.75;;;27.02;48.40
20394;BME280;10356;50.544;9.642;2022-07-29T11:21:42;98088.28;;;27.21;46.36
20394;BME280;10356;50.544;9.642;2022-07-29T11:24:12;98081.97;;;27.04;47.63
20394;BME280;10356;50.544;9.642;2022-07-29T11:26:39;98076.88;;;27.14;46.71
20394;BME280;10356;50.544;9.642;2022-07-29T11:29:16;98082.22;;;27.56;46.59
20394;BME280;10356;50.544;9.642;2022-07-29T11:31:45;98082.25;;;27.67;46.24
20394;BME280;10356;50.544;9.642;2022-07-29T11:34:18;98077.72;;;27.79;45.63
20394;BME280;10356;50.544;9.642;2022-07-29T11:37:17;98079.59;;;28.02;45.60
20394;BME280;10356;50.544;9.642;2022-07-29T11:39:46;98088.66;;;28.47;42.80
20394;BME280;10356;50.544;9.642;2022-07-29T11:42:38;98082.81;;;28.39;43.28
20394;BME280;10356;50.544;9.642;2022-07-29T11:45:07;98079.81;;;27.89;42.99
20394;BME280;10356;50.544;9.642;2022-07-29T11:47:36;98080.63;;;28.24;42.30
20394;BME280;10356;50.544;9.642;2022-07-29T11:50:04;98074.44;;;28.58;42.00
20394;BME280;10356;50.544;9.642;2022-07-29T11:52:34;98077.91;;;28.98;41.73
20394;BME280;10356;50.544;9.642;2022-07-29T11:55:04;98074.34;;;29.38;40.44
20394;BME280;10356;50.544;9.642;2022-07-29T11:57:34;98080.91;;;29.75;39.01
20394;BME280;10356;50.544;9.642;2022-07-29T12:00:02;98078.41;;;29.12;39.54
20394;BME280;10356;50.544;9.642;2022-07-29T12:02:38;98063.53;;;29.33;40.13
20394;BME280;10356;50.544;9.642;2022-07-29T12:05:07;98059.28;;;29.53;39.00
20394;BME280;10356;50.544;9.642;2022-07-29T12:07:35;98063.22;;;29.79;38.12
20394;BME280;10356;50.544;9.642;2022-07-29T12:10:03;98057.78;;;30.12;38.70
20394;BME280;10356;50.544;9.642;2022-07-29T12:12:31;98054.25;;;30.28;37.36
20394;BME280;10356;50.544;9.642;2022-07-29T12:14:57;98051.91;;;29.94;38.64
20394;BME280;10356;50.544;9.642;2022-07-29T12:17:25;98044.09;;;30.30;37.85
20394;BME280;10356;50.544;9.642;2022-07-29T12:19:52;98041.22;;;29.82;38.57
20394;BME280;10356;50.544;9.642;2022-07-29T12:22:25;98036.84;;;30.31;37.94
20394;BME280;10356;50.544;9.642;2022-07-29T12:24:53;98032.63;;;29.63;37.73
20394;BME280;10356;50.544;9.642;2022-07-29T12:27:20;98030.56;;;29.21;38.90
20394;BME280;10356;50.544;9.642;2022-07-29T12:29:55;98030.09;;;29.57;38.58
20394;BME280;10356;50.544;9.642;2022-07-29T12:32:22;98031.72;;;30.13;37.32
20394;BME280;10356;50.544;9.642;2022-07-29T12:34:48;98019.06;;;30.51;36.88
20394;BME280;10356;50.544;9.642;2022-07-29T12:37:15;98018.69;;;30.21;37.60
20394;BME280;10356;50.544;9.642;2022-07-29T12:39:42;98015.13;;;30.37;37.42
20394;BME280;10356;50.544;9.642;2022-07-29T12:42:14;98017.03;;;30.85;36.79
20394;BME280;10356;50.544;9.642;2022-07-29T12:44:46;98017.34;;;30.89;36.79
20394;BME280;10356;50.544;9.642;2022-07-29T12:47:13;98010.47;;;30.54;36.85
20394;BME280;10356;50.544;9.642;2022-07-29T12:49:41;98008.66;;;30.82;35.76
20394;BME280;10356;50.544;9.642;2022-07-29T12:52:24;98013.59;;;31.16;35.42
20394;BME280;10356;50.544;9.642;2022-07-29T12:54:51;98005.63;;;31.31;34.44
20394;BME280;10356;50.544;9.642;2022-07-29T12:57:19;97995.50;;;31.12;34.37
20394;BME280;10356;50.544;9.642;2022-07-29T12:59:58;97996.78;;;31.36;34.46
20394;BME280;10356;50.544;9.642;2022-07-29T13:02:25;97989.75;;;30.77;34.32
20394;BME280;10356;50.544;9.642;2022-07-29T13:04:55;97986.97;;;31.20;34.28
20394;BME280;10356;50.544;9.642;2022-07-29T13:07:24;97983.41;;;31.46;34.72
20394;BME280;10356;50.544;9.642;2022-07-29T13:09:52;97985.03;;;30.89;35.58
20394;BME280;10356;50.544;9.642;2022-07-29T13:12:20;97982.22;;;30.79;34.47
20394;BME280;10356;50.544;9.642;2022-07-29T13:14:48;97975.38;;;30.39;35.47